Time;durP1;ratioP1;P1;durP2;ratioP2;P2;SDS_P1;SDS_P2;PMS_P1;PMS_P2;Temp;Humidity;BMP_temperature;BMP_pressure;BME280_temperature;BME280_humidity;BME280_pressure;Samples;Min_cycle;Max_cycle;Signal;HPM_P1;HPM_P2
2023/02/04 00:00:06;;;;;;;10.13;6.40;;;;;;;;;;5097759;28;20024;-67
2023/02/04 00:02:32;;;;;;;10.40;7.17;;;;;;;;;;5114537;28;20080;-67
2023/02/04 00:04:58;;;;;;;9.80;6.40;;;;;;;;;;5098047;28;20042;-66
2023/02/04 00:07:23;;;;;;;10.70;6.27;;;;;;;;;;5097802;28;20023;-66
2023/02/04 00:09:50;;;;;;;17.40;7.10;;;;;;;;;;5097663;28;20359;-67
2023/02/04 00:12:16;;;;;;;17.00;7.00;;;;;;;;;;5097465;28;20043;-67
2023/02/04 00:14:41;;;;;;;12.73;7.07;;;;;;;;;;5097446;28;20135;-67
2023/02/04 00:17:09;;;;;;;11.83;6.67;;;;;;;;;;5097494;28;20038;-67
2023/02/04 00:19:35;;;;;;;12.27;6.60;;;;;;;;;;5097648;28;20050;-66
2023/02/04 00:22:02;;;;;;;11.93;6.50;;;;;;;;;;5097356;28;20469;-67
2023/02/04 00:24:29;;;;;;;8.57;5.37;;;;;;;;;;5097806;27;20035;-66
2023/02/04 00:26:55;;;;;;;10.43;5.97;;;;;;;;;;5134360;27;20134;-67
2023/02/04 00:29:20;;;;;;;8.10;5.60;;;;;;;;;;5118346;27;20078;-67
2023/02/04 00:31:46;;;;;;;8.83;5.93;;;;;;;;;;5100865;27;20059;-67
2023/02/04 00:34:11;;;;;;;11.13;5.93;;;;;;;;;;5101162;27;20043;-66
2023/02/04 00:36:37;;;;;;;9.30;5.20;;;;;;;;;;5101079;27;20042;-67
2023/02/04 00:39:03;;;;;;;10.50;6.00;;;;;;;;;;5100908;27;20254;-66
2023/02/04 00:41:28;;;;;;;9.23;5.20;;;;;;;;;;5117896;27;20034;-66
2023/02/04 00:43:54;;;;;;;10.90;5.53;;;;;;;;;;5117770;27;20038;-66
2023/02/04 00:46:20;;;;;;;10.70;5.40;;;;;;;;;;5100673;27;20457;-66
2023/02/04 00:48:45;;;;;;;9.00;5.87;;;;;;;;;;5117755;27;20031;-67
2023/02/04 00:51:11;;;;;;;8.90;5.40;;;;;;;;;;5100683;27;20526;-67
2023/02/04 00:53:37;;;;;;;11.63;6.07;;;;;;;;;;5100516;27;20035;-66
2023/02/04 00:56:03;;;;;;;11.50;6.33;;;;;;;;;;5100560;27;20477;-67
2023/02/04 00:58:29;;;;;;;10.03;5.93;;;;;;;;;;5100649;27;20038;-66
2023/02/04 01:00:54;;;;;;;16.23;6.90;;;;;;;;;;5117746;27;20499;-66
2023/02/04 01:03:20;;;;;;;9.27;5.93;;;;;;;;;;5100356;27;20454;-67
2023/02/04 01:05:46;;;;;;;9.57;6.23;;;;;;;;;;5100417;27;20049;-66
2023/02/04 01:08:11;;;;;;;9.27;5.97;;;;;;;;;;5117529;27;20035;-67
2023/02/04 01:10:37;;;;;;;11.23;6.60;;;;;;;;;;5100157;27;20039;-66
2023/02/04 01:13:07;;;;;;;10.87;5.90;;;;;;;;;;5100739;27;20031;-67
2023/02/04 01:15:33;;;;;;;9.30;6.33;;;;;;;;;;5100462;27;20055;-66
2023/02/04 01:17:58;;;;;;;11.63;6.97;;;;;;;;;;5100405;27;20495;-66
2023/02/04 01:20:24;;;;;;;12.73;6.80;;;;;;;;;;5100014;27;20059;-66
2023/02/04 01:22:50;;;;;;;12.70;6.90;;;;;;;;;;5117142;27;20034;-66
2023/02/04 01:25:15;;;;;;;11.50;6.80;;;;;;;;;;5100138;27;20031;-66
2023/02/04 01:27:42;;;;;;;12.70;6.83;;;;;;;;;;5134431;27;20396;-66
2023/02/04 01:30:08;;;;;;;9.83;6.77;;;;;;;;;;5099972;27;20031;-67
2023/02/04 01:32:34;;;;;;;12.60;7.00;;;;;;;;;;5099818;27;20465;-67
2023/02/04 01:34:59;;;;;;;11.60;7.13;;;;;;;;;;5100132;27;20046;-66
2023/02/04 01:37:25;;;;;;;9.50;6.53;;;;;;;;;;5099691;27;20023;-66
2023/02/04 01:39:51;;;;;;;11.47;6.80;;;;;;;;;;5099819;27;20440;-66
2023/02/04 01:42:16;;;;;;;11.57;6.73;;;;;;;;;;5099642;27;20389;-67
2023/02/04 01:44:42;;;;;;;13.90;7.27;;;;;;;;;;5099771;27;20369;-66
2023/02/04 01:47:08;;;;;;;10.57;6.50;;;;;;;;;;5099849;27;20027;-67
2023/02/04 01:49:34;;;;;;;12.00;7.53;;;;;;;;;;5116947;27;20054;-66
2023/02/04 01:52:01;;;;;;;13.87;7.03;;;;;;;;;;5099575;27;20031;-66
2023/02/04 01:54:27;;;;;;;12.03;6.67;;;;;;;;;;5099663;27;20088;-66
2023/02/04 01:56:54;;;;;;;10.67;6.03;;;;;;;;;;5117324;27;20457;-66
2023/02/04 01:59:20;;;;;;;11.37;6.47;;;;;;;;;;5117271;27;20037;-66
2023/02/04 02:01:50;;;;;;;11.93;7.33;;;;;;;;;;5099758;27;20377;-66
2023/02/04 02:04:29;;;;;;;14.00;7.00;;;;;;;;;;5134167;27;20457;-66
2023/02/04 02:06:57;;;;;;;11.73;7.43;;;;;;;;;;5116252;27;20031;-66
2023/02/04 02:09:24;;;;;;;16.07;7.30;;;;;;;;;;5116326;27;20535;-66
2023/02/04 02:11:49;;;;;;;12.40;7.10;;;;;;;;;;5099090;27;20035;-66
2023/02/04 02:14:15;;;;;;;10.37;6.50;;;;;;;;;;5115833;27;20034;-66
2023/02/04 02:16:40;;;;;;;11.33;7.30;;;;;;;;;;5082178;27;20035;-66
2023/02/04 02:19:09;;;;;;;13.00;7.53;;;;;;;;;;5099165;27;20384;-68
2023/02/04 02:21:45;;;;;;;9.90;6.63;;;;;;;;;;5099245;27;20461;-66
2023/02/04 02:24:32;;;;;;;11.20;6.47;;;;;;;;;;5098925;27;20083;-66
2023/02/04 02:27:00;;;;;;;8.60;5.97;;;;;;;;;;5133444;27;20035;-66
2023/02/04 02:29:26;;;;;;;11.20;6.70;;;;;;;;;;5115821;27;20556;-66
2023/02/04 02:31:53;;;;;;;11.33;7.27;;;;;;;;;;5115643;27;20122;-67
2023/02/04 02:34:18;;;;;;;13.20;7.57;;;;;;;;;;5115546;27;20027;-67
2023/02/04 02:36:46;;;;;;;10.70;6.70;;;;;;;;;;5098630;27;20546;-66
2023/02/04 02:39:12;;;;;;;10.70;6.83;;;;;;;;;;5098776;27;20477;-66
2023/02/04 02:41:38;;;;;;;13.13;7.10;;;;;;;;;;5098844;27;20038;-67
2023/02/04 02:44:04;;;;;;;11.30;7.00;;;;;;;;;;5133836;27;20121;-66
2023/02/04 02:46:30;;;;;;;9.70;6.57;;;;;;;;;;5098409;27;20548;-66
2023/02/04 02:48:55;;;;;;;12.07;7.13;;;;;;;;;;5097952;27;20449;-66
2023/02/04 02:51:21;;;;;;;11.73;6.43;;;;;;;;;;5098525;27;20469;-66
2023/02/04 02:53:48;;;;;;;10.70;6.37;;;;;;;;;;5098386;27;20070;-66
2023/02/04 02:56:13;;;;;;;13.27;6.20;;;;;;;;;;5098405;27;20100;-67
2023/02/04 02:58:39;;;;;;;8.47;6.03;;;;;;;;;;5115348;27;20539;-67
2023/02/04 03:01:07;;;;;;;8.70;5.60;;;;;;;;;;5098715;27;20034;-66
2023/02/04 03:03:36;;;;;;;7.80;5.60;;;;;;;;;;5098420;27;20598;-66
2023/02/04 03:06:10;;;;;;;9.67;6.60;;;;;;;;;;5098308;27;20028;-66
2023/02/04 03:08:36;;;;;;;9.23;6.10;;;;;;;;;;5081747;27;20437;-66
2023/02/04 03:11:02;;;;;;;11.43;6.93;;;;;;;;;;5098080;28;20384;-66
2023/02/04 03:13:28;;;;;;;11.33;5.93;;;;;;;;;;5098224;27;20031;-66
2023/02/04 03:15:56;;;;;;;12.13;6.57;;;;;;;;;;5098019;27;20061;-66
2023/02/04 03:18:21;;;;;;;10.83;6.10;;;;;;;;;;5081186;28;20041;-66
2023/02/04 03:20:49;;;;;;;10.10;6.23;;;;;;;;;;5098106;28;20130;-66
2023/02/04 03:23:14;;;;;;;12.77;6.33;;;;;;;;;;5098040;28;20373;-66
2023/02/04 03:25:41;;;;;;;9.30;6.10;;;;;;;;;;5098200;28;20131;-66
2023/02/04 03:28:06;;;;;;;9.43;6.20;;;;;;;;;;5115349;28;20118;-66
2023/02/04 03:30:32;;;;;;;9.90;5.80;;;;;;;;;;5098181;28;20039;-67
2023/02/04 03:32:57;;;;;;;9.03;5.80;;;;;;;;;;5115039;28;20422;-66
2023/02/04 03:35:23;;;;;;;9.97;5.83;;;;;;;;;;5097831;28;20385;-66
2023/02/04 03:37:49;;;;;;;8.33;5.67;;;;;;;;;;5098062;28;20035;-66
2023/02/04 03:40:14;;;;;;;8.70;5.50;;;;;;;;;;5098030;28;20058;-66
2023/02/04 03:42:40;;;;;;;12.03;4.93;;;;;;;;;;5098707;28;20389;-66
2023/02/04 03:45:06;;;;;;;7.40;4.97;;;;;;;;;;5097988;28;20469;-67
2023/02/04 03:47:31;;;;;;;6.30;4.73;;;;;;;;;;5098034;28;20034;-66
2023/02/04 03:49:57;;;;;;;6.97;4.50;;;;;;;;;;5097868;28;20039;-66
2023/02/04 03:52:23;;;;;;;11.33;5.87;;;;;;;;;;5114965;28;20111;-66
2023/02/04 03:54:48;;;;;;;6.70;4.87;;;;;;;;;;5097517;28;20503;-66
2023/02/04 03:57:17;;;;;;;7.17;4.90;;;;;;;;;;5097800;28;20031;-66
2023/02/04 03:59:42;;;;;;;9.10;5.20;;;;;;;;;;5116142;27;20039;-67
2023/02/04 04:02:08;;;;;;;8.73;5.60;;;;;;;;;;5118800;27;20038;-66
2023/02/04 04:04:34;;;;;;;9.27;5.30;;;;;;;;;;5101576;27;20110;-66
2023/02/04 04:06:59;;;;;;;7.80;5.23;;;;;;;;;;5101624;27;20430;-66
2023/02/04 04:09:25;;;;;;;7.50;4.80;;;;;;;;;;5118672;27;20485;-66
2023/02/04 04:11:50;;;;;;;7.40;5.27;;;;;;;;;;5101583;27;20027;-66
2023/02/04 04:14:16;;;;;;;7.40;4.40;;;;;;;;;;5101099;27;20088;-66
2023/02/04 04:16:41;;;;;;;6.77;4.40;;;;;;;;;;5101561;27;20035;-66
2023/02/04 04:19:07;;;;;;;7.57;4.63;;;;;;;;;;5084539;27;20041;-67
2023/02/04 04:21:33;;;;;;;7.33;4.70;;;;;;;;;;5101393;27;20129;-66
2023/02/04 04:23:58;;;;;;;6.77;5.17;;;;;;;;;;5101320;27;20046;-66
2023/02/04 04:26:24;;;;;;;7.80;4.60;;;;;;;;;;5101038;27;20039;-66
2023/02/04 04:28:49;;;;;;;6.20;4.37;;;;;;;;;;5101281;27;20034;-66
2023/02/04 04:31:15;;;;;;;7.50;4.63;;;;;;;;;;5101288;27;20552;-67
2023/02/04 04:33:42;;;;;;;6.80;4.53;;;;;;;;;;5118246;27;20035;-66
2023/02/04 04:36:08;;;;;;;5.67;3.90;;;;;;;;;;5100761;27;20366;-66
2023/02/04 04:38:33;;;;;;;5.70;4.03;;;;;;;;;;5100882;27;20334;-66
2023/02/04 04:40:59;;;;;;;5.97;3.53;;;;;;;;;;5136305;27;20046;-66
2023/02/04 04:43:25;;;;;;;5.47;3.37;;;;;;;;;;5100713;27;20129;-67
2023/02/04 04:45:51;;;;;;;8.83;4.70;;;;;;;;;;5100705;27;20126;-67
2023/02/04 04:48:17;;;;;;;8.67;5.43;;;;;;;;;;5100836;27;20134;-66
2023/02/04 04:50:42;;;;;;;7.83;5.17;;;;;;;;;;5101040;27;20034;-66
2023/02/04 04:53:10;;;;;;;6.57;4.80;;;;;;;;;;5100559;27;20182;-67
2023/02/04 04:55:37;;;;;;;9.10;5.70;;;;;;;;;;5100526;27;20146;-67
2023/02/04 04:58:03;;;;;;;10.63;5.93;;;;;;;;;;5100627;27;20045;-66
2023/02/04 05:00:28;;;;;;;9.00;5.33;;;;;;;;;;5100622;27;20031;-66
2023/02/04 05:02:54;;;;;;;7.27;5.30;;;;;;;;;;5100565;27;20039;-66
2023/02/04 05:05:20;;;;;;;10.83;5.90;;;;;;;;;;5100437;27;20027;-67
2023/02/04 05:07:45;;;;;;;8.67;5.60;;;;;;;;;;5100665;27;20031;-66
2023/02/04 05:10:11;;;;;;;11.63;7.23;;;;;;;;;;5100733;27;20495;-66
2023/02/04 05:12:36;;;;;;;13.27;6.53;;;;;;;;;;5099559;27;20410;-67
2023/02/04 05:15:02;;;;;;;11.60;6.40;;;;;;;;;;5117034;27;20055;-66
2023/02/04 05:17:29;;;;;;;12.80;6.57;;;;;;;;;;5117220;27;20031;-66
2023/02/04 05:19:55;;;;;;;13.50;7.30;;;;;;;;;;5100332;27;20095;-66
2023/02/04 05:22:23;;;;;;;13.20;7.27;;;;;;;;;;5099813;27;20035;-66
2023/02/04 05:24:48;;;;;;;12.17;7.50;;;;;;;;;;5117159;27;20035;-66
2023/02/04 05:27:15;;;;;;;13.17;6.70;;;;;;;;;;5100414;27;20024;-66
2023/02/04 05:29:41;;;;;;;14.83;7.17;;;;;;;;;;5099991;27;20507;-66
2023/02/04 05:32:06;;;;;;;16.43;7.53;;;;;;;;;;5116960;27;20038;-67
2023/02/04 05:34:32;;;;;;;13.23;7.57;;;;;;;;;;5099674;27;20070;-66
2023/02/04 05:36:57;;;;;;;16.67;8.37;;;;;;;;;;5099796;27;20027;-66
2023/02/04 05:39:23;;;;;;;14.67;8.10;;;;;;;;;;5099924;27;20420;-66
2023/02/04 05:41:48;;;;;;;15.43;8.50;;;;;;;;;;5099903;27;20129;-67
2023/02/04 05:44:15;;;;;;;17.00;9.10;;;;;;;;;;5099985;27;20027;-66
2023/02/04 05:46:41;;;;;;;19.20;9.53;;;;;;;;;;5099546;27;20038;-66
2023/02/04 05:49:07;;;;;;;19.90;10.60;;;;;;;;;;5099692;27;20057;-66
2023/02/04 05:51:33;;;;;;;17.07;10.07;;;;;;;;;;5099299;27;20091;-66
2023/02/04 05:53:58;;;;;;;17.57;9.77;;;;;;;;;;5099325;27;20031;-66
2023/02/04 05:56:24;;;;;;;18.27;9.33;;;;;;;;;;5099382;27;20037;-67
2023/02/04 05:58:50;;;;;;;19.57;10.30;;;;;;;;;;5099415;27;20469;-67
2023/02/04 06:01:15;;;;;;;19.17;10.17;;;;;;;;;;5116576;27;20066;-66
2023/02/04 06:03:41;;;;;;;17.43;10.27;;;;;;;;;;5099333;27;20059;-66
2023/02/04 06:06:07;;;;;;;18.23;9.50;;;;;;;;;;5116225;27;20027;-66
2023/02/04 06:08:33;;;;;;;18.80;10.20;;;;;;;;;;5116194;27;20038;-66
2023/02/04 06:10:58;;;;;;;18.23;9.67;;;;;;;;;;5099332;27;20031;-67
2023/02/04 06:13:24;;;;;;;16.10;9.43;;;;;;;;;;5099133;27;20035;-68
2023/02/04 06:15:49;;;;;;;18.30;9.53;;;;;;;;;;5099046;27;20466;-67
2023/02/04 06:18:15;;;;;;;20.70;9.17;;;;;;;;;;5116351;27;20039;-66
2023/02/04 06:20:40;;;;;;;12.73;8.10;;;;;;;;;;5116363;27;20058;-66
2023/02/04 06:23:06;;;;;;;9.77;6.63;;;;;;;;;;5097924;28;20038;-66
2023/02/04 06:25:32;;;;;;;16.07;8.13;;;;;;;;;;5099074;27;20510;-66
2023/02/04 06:27:57;;;;;;;17.13;10.27;;;;;;;;;;5099040;27;20033;-67
2023/02/04 06:30:23;;;;;;;20.63;9.73;;;;;;;;;;5098851;27;20125;-67
2023/02/04 06:32:48;;;;;;;17.03;8.83;;;;;;;;;;5099096;27;20035;-66
2023/02/04 06:35:15;;;;;;;19.97;10.03;;;;;;;;;;5098674;27;20120;-66
2023/02/04 06:37:41;;;;;;;17.63;9.83;;;;;;;;;;5098442;27;20035;-67
2023/02/04 06:40:07;;;;;;;15.70;7.33;;;;;;;;;;5098533;27;20057;-67
2023/02/04 06:42:33;;;;;;;13.50;7.07;;;;;;;;;;5098920;27;20035;-67
2023/02/04 06:44:59;;;;;;;15.60;7.57;;;;;;;;;;5098578;27;20035;-66
2023/02/04 06:47:24;;;;;;;13.83;7.60;;;;;;;;;;5115278;27;20492;-66
2023/02/04 06:49:50;;;;;;;13.87;7.33;;;;;;;;;;5098805;27;20046;-66
2023/02/04 06:52:15;;;;;;;11.00;6.27;;;;;;;;;;5098298;27;20057;-66
2023/02/04 06:54:41;;;;;;;11.40;6.97;;;;;;;;;;5098337;27;20181;-67
2023/02/04 06:57:07;;;;;;;10.80;6.87;;;;;;;;;;5098219;27;20023;-67
2023/02/04 06:59:33;;;;;;;12.07;7.23;;;;;;;;;;5098347;28;20491;-66
2023/02/04 07:01:58;;;;;;;11.97;7.10;;;;;;;;;;5098188;27;20027;-66
2023/02/04 07:04:24;;;;;;;13.97;6.83;;;;;;;;;;5098247;28;20027;-66
2023/02/04 07:06:49;;;;;;;8.50;6.00;;;;;;;;;;5098471;27;20354;-66
2023/02/04 07:09:15;;;;;;;10.83;5.20;;;;;;;;;;5098201;27;20533;-66
2023/02/04 07:11:41;;;;;;;11.87;6.43;;;;;;;;;;5098203;27;20035;-66
2023/02/04 07:14:06;;;;;;;11.87;6.57;;;;;;;;;;5097889;27;20494;-66
2023/02/04 07:16:32;;;;;;;15.40;7.83;;;;;;;;;;5115069;28;20039;-66
2023/02/04 07:18:57;;;;;;;13.63;6.60;;;;;;;;;;5098160;28;20429;-66
2023/02/04 07:21:23;;;;;;;9.77;5.80;;;;;;;;;;5098203;28;20031;-66
2023/02/04 07:23:48;;;;;;;9.90;5.33;;;;;;;;;;5098364;28;20213;-66
2023/02/04 07:26:14;;;;;;;10.93;6.33;;;;;;;;;;5115126;28;20130;-66
2023/02/04 07:28:40;;;;;;;14.00;6.53;;;;;;;;;;5098080;28;20034;-67
2023/02/04 07:31:05;;;;;;;11.10;6.60;;;;;;;;;;5098003;28;20038;-67
2023/02/04 07:33:31;;;;;;;7.80;4.33;;;;;;;;;;5097752;28;20039;-67
2023/02/04 07:35:57;;;;;;;7.97;5.23;;;;;;;;;;5118133;27;20046;-67
2023/02/04 07:38:22;;;;;;;6.87;4.17;;;;;;;;;;5102415;27;20027;-67
2023/02/04 07:40:48;;;;;;;8.47;5.23;;;;;;;;;;5119397;27;20092;-67
2023/02/04 07:43:13;;;;;;;7.17;4.87;;;;;;;;;;5101877;27;20047;-67
2023/02/04 07:45:39;;;;;;;11.30;5.70;;;;;;;;;;5118816;27;20038;-66
2023/02/04 07:48:04;;;;;;;12.07;6.43;;;;;;;;;;5119077;27;20481;-67
2023/02/04 07:50:30;;;;;;;8.30;5.23;;;;;;;;;;5101914;27;20023;-67
2023/02/04 07:52:56;;;;;;;9.57;4.30;;;;;;;;;;5118812;27;20513;-67
2023/02/04 07:55:21;;;;;;;8.98;4.78;;;;;;;;;;5101804;27;20354;-67
2023/02/04 07:57:47;;;;;;;6.47;4.30;;;;;;;;;;5118585;27;20096;-67
2023/02/04 08:00:13;;;;;;;8.40;4.43;;;;;;;;;;5118960;27;20551;-67
2023/02/04 08:02:39;;;;;;;7.22;4.85;;;;;;;;;;5101459;27;20544;-67
2023/02/04 08:05:05;;;;;;;10.38;5.80;;;;;;;;;;5101259;27;20084;-67
2023/02/04 08:07:30;;;;;;;8.32;5.93;;;;;;;;;;5118400;27;20476;-67
2023/02/04 08:09:56;;;;;;;10.93;6.25;;;;;;;;;;5118407;27;20481;-68
2023/02/04 08:12:21;;;;;;;12.98;6.95;;;;;;;;;;5135656;27;20034;-67
2023/02/04 08:14:47;;;;;;;10.10;5.85;;;;;;;;;;5101062;27;20058;-67
2023/02/04 08:17:13;;;;;;;11.25;5.53;;;;;;;;;;5118425;27;20058;-67
2023/02/04 08:19:38;;;;;;;10.40;5.70;;;;;;;;;;5101228;27;20377;-67
2023/02/04 08:22:04;;;;;;;8.73;5.80;;;;;;;;;;5101295;27;20035;-67
2023/02/04 08:24:29;;;;;;;10.55;5.95;;;;;;;;;;5118206;27;20034;-67
2023/02/04 08:26:55;;;;;;;9.50;5.82;;;;;;;;;;5101406;27;20027;-67
2023/02/04 08:29:20;;;;;;;13.30;5.47;;;;;;;;;;5101010;27;20023;-67
2023/02/04 08:31:46;;;;;;;7.40;5.03;;;;;;;;;;5101002;27;20035;-67
2023/02/04 08:34:12;;;;;;;10.48;6.53;;;;;;;;;;5100959;27;20076;-67
2023/02/04 08:36:37;;;;;;;13.52;7.57;;;;;;;;;;5100830;27;20031;-67
2023/02/04 08:39:03;;;;;;;10.32;6.47;;;;;;;;;;5100936;27;20043;-67
2023/02/04 08:41:28;;;;;;;10.32;6.72;;;;;;;;;;5100803;27;20467;-67
2023/02/04 08:43:54;;;;;;;17.27;8.90;;;;;;;;;;5101141;27;20038;-67
2023/02/04 08:46:19;;;;;;;17.02;8.48;;;;;;;;;;5099520;27;20430;-67
2023/02/04 08:48:45;;;;;;;15.10;7.55;;;;;;;;;;5100892;27;20050;-67
2023/02/04 08:51:11;;;;;;;12.88;6.20;;;;;;;;;;5100732;27;20391;-68
2023/02/04 08:53:38;;;;;;;7.30;4.47;;;;;;;;;;5100849;27;20046;-67
2023/02/04 08:56:03;;;;;;;10.02;4.93;;;;;;;;;;5100441;27;20174;-67
2023/02/04 08:58:29;;;;;;;7.22;4.32;;;;;;;;;;5134666;27;20046;-67
2023/02/04 09:00:55;;;;;;;8.63;4.32;;;;;;;;;;5117894;27;20042;-67
2023/02/04 09:03:20;;;;;;;6.55;3.90;;;;;;;;;;5100520;27;20063;-67
2023/02/04 09:05:46;;;;;;;5.05;3.00;;;;;;;;;;5100258;27;20059;-68
2023/02/04 09:08:14;;;;;;;6.05;3.70;;;;;;;;;;5100333;27;20164;-67
2023/02/04 09:10:40;;;;;;;7.18;4.15;;;;;;;;;;5100432;27;20035;-67
2023/02/04 09:13:08;;;;;;;10.68;5.30;;;;;;;;;;5100306;27;20030;-68
2023/02/04 09:15:33;;;;;;;16.58;6.38;;;;;;;;;;5100047;27;20090;-67
2023/02/04 09:18:12;;;;;;;12.35;7.05;;;;;;;;;;5100379;27;20069;-67
2023/02/04 09:20:38;;;;;;;12.23;5.78;;;;;;;;;;5100234;27;20035;-67
2023/02/04 09:23:07;;;;;;;8.45;5.07;;;;;;;;;;5099946;27;20035;-67
2023/02/04 09:25:33;;;;;;;8.05;5.28;;;;;;;;;;5100192;27;20038;-67
2023/02/04 09:27:59;;;;;;;9.70;5.22;;;;;;;;;;5100309;27;20027;-67
2023/02/04 09:30:24;;;;;;;11.48;5.43;;;;;;;;;;5100045;27;20470;-67
2023/02/04 09:32:50;;;;;;;10.50;6.20;;;;;;;;;;5099647;27;20183;-67
2023/02/04 09:35:16;;;;;;;15.13;6.38;;;;;;;;;;5099704;27;20346;-67
2023/02/04 09:37:41;;;;;;;13.10;6.82;;;;;;;;;;5099735;27;20056;-67
2023/02/04 09:40:08;;;;;;;14.88;6.70;;;;;;;;;;5099830;27;20573;-67
2023/02/04 09:42:34;;;;;;;11.07;6.80;;;;;;;;;;5099648;27;20357;-67
2023/02/04 09:45:02;;;;;;;11.10;7.40;;;;;;;;;;5099819;27;20027;-66
2023/02/04 09:47:29;;;;;;;10.85;6.75;;;;;;;;;;5099965;27;20121;-67
2023/02/04 09:49:55;;;;;;;13.00;7.18;;;;;;;;;;5099318;27;20031;-67
2023/02/04 09:52:23;;;;;;;12.88;7.70;;;;;;;;;;5099453;27;20038;-67
2023/02/04 09:54:49;;;;;;;14.20;8.20;;;;;;;;;;5099344;27;20035;-67
2023/02/04 09:57:18;;;;;;;16.15;7.88;;;;;;;;;;5099221;27;20031;-67
2023/02/04 09:59:44;;;;;;;19.50;9.23;;;;;;;;;;5116253;27;20084;-67
2023/02/04 10:02:20;;;;;;;17.08;9.05;;;;;;;;;;5099465;27;20465;-67
2023/02/04 10:04:46;;;;;;;18.13;9.77;;;;;;;;;;5116183;27;20111;-67
2023/02/04 10:07:12;;;;;;;17.45;9.93;;;;;;;;;;5116160;27;20410;-67
2023/02/04 10:09:38;;;;;;;18.08;10.55;;;;;;;;;;5099137;27;20134;-67
2023/02/04 10:12:05;;;;;;;20.77;11.75;;;;;;;;;;5099126;27;20091;-68
2023/02/04 10:14:30;;;;;;;22.60;11.68;;;;;;;;;;5099006;27;20132;-67
2023/02/04 10:16:57;;;;;;;14.88;7.95;;;;;;;;;;5098893;27;20050;-67
2023/02/04 10:19:23;;;;;;;13.85;9.18;;;;;;;;;;5082005;27;20079;-67
2023/02/04 10:21:49;;;;;;;16.90;9.00;;;;;;;;;;5098790;27;20027;-67
2023/02/04 10:24:19;;;;;;;15.00;8.10;;;;;;;;;;5078054;28;20038;-68
2023/02/04 10:26:45;;;;;;;18.77;9.85;;;;;;;;;;5081481;27;20074;-68
2023/02/04 10:29:15;;;;;;;18.60;10.45;;;;;;;;;;5085408;27;20489;-68
2023/02/04 10:31:42;;;;;;;20.27;10.77;;;;;;;;;;5077523;28;20440;-68
2023/02/04 10:34:14;;;;;;;15.88;8.88;;;;;;;;;;5071885;27;20313;-69
2023/02/04 10:36:41;;;;;;;17.65;8.93;;;;;;;;;;5091226;27;20092;-68
2023/02/04 10:39:18;;;;;;;19.95;10.13;;;;;;;;;;5098060;27;20038;-68
2023/02/04 10:41:55;;;;;;;25.17;11.38;;;;;;;;;;5081246;27;20122;-68
2023/02/04 10:44:28;;;;;;;23.77;13.60;;;;;;;;;;5080982;27;20023;-68
2023/02/04 10:47:12;;;;;;;25.35;13.43;;;;;;;;;;5098109;27;20056;-68
2023/02/04 10:49:38;;;;;;;24.23;13.05;;;;;;;;;;5081574;27;20031;-68
2023/02/04 10:52:12;;;;;;;27.33;14.05;;;;;;;;;;5081990;27;20114;-68
2023/02/04 10:54:38;;;;;;;28.58;14.98;;;;;;;;;;5081475;27;20393;-67
2023/02/04 10:57:07;;;;;;;25.67;13.88;;;;;;;;;;5081793;27;20096;-68
2023/02/04 10:59:33;;;;;;;32.50;14.25;;;;;;;;;;5081733;27;20034;-68
2023/02/04 11:02:00;;;;;;;27.83;14.38;;;;;;;;;;5081613;27;20082;-67
2023/02/04 11:04:27;;;;;;;25.00;13.50;;;;;;;;;;5098418;27;20324;-68
2023/02/04 11:06:54;;;;;;;27.13;13.60;;;;;;;;;;5098333;27;20042;-67
2023/02/04 11:09:20;;;;;;;28.77;14.10;;;;;;;;;;5080514;27;20039;-67
2023/02/04 11:11:49;;;;;;;30.23;14.55;;;;;;;;;;5081318;27;20095;-67
2023/02/04 11:14:22;;;;;;;27.05;14.38;;;;;;;;;;5098022;28;20062;-67
2023/02/04 11:16:48;;;;;;;32.75;14.02;;;;;;;;;;5098013;27;20102;-67
2023/02/04 11:19:15;;;;;;;32.63;14.65;;;;;;;;;;5080963;27;20039;-68
2023/02/04 11:21:42;;;;;;;33.42;15.15;;;;;;;;;;5115161;27;20034;-68
2023/02/04 11:24:11;;;;;;;35.60;16.55;;;;;;;;;;5081258;28;20122;-68
2023/02/04 11:26:39;;;;;;;31.48;15.77;;;;;;;;;;5081352;28;20038;-67
2023/02/04 11:29:24;;;;;;;32.85;16.25;;;;;;;;;;5081602;28;20062;-67
2023/02/04 11:31:50;;;;;;;33.95;15.32;;;;;;;;;;5036479;28;20493;-67
2023/02/04 11:34:17;;;;;;;32.03;15.63;;;;;;;;;;5036698;28;20044;-67
2023/02/04 11:37:00;;;;;;;35.35;17.27;;;;;;;;;;5036693;28;20044;-67
2023/02/04 11:39:32;;;;;;;33.53;16.23;;;;;;;;;;5020125;28;20078;-68
2023/02/04 11:42:01;;;;;;;35.03;15.93;;;;;;;;;;5036608;28;20044;-67
2023/02/04 11:44:26;;;;;;;32.95;16.10;;;;;;;;;;5020023;28;20044;-68
2023/02/04 11:46:55;;;;;;;32.83;16.67;;;;;;;;;;5020121;28;20036;-67
2023/02/04 11:49:23;;;;;;;34.08;16.23;;;;;;;;;;5020021;28;20040;-67
2023/02/04 11:51:49;;;;;;;28.90;15.48;;;;;;;;;;5036634;28;20105;-67
2023/02/04 11:54:17;;;;;;;30.65;15.52;;;;;;;;;;5020050;28;20511;-67
2023/02/04 11:56:44;;;;;;;31.83;17.10;;;;;;;;;;5020061;28;20156;-67
2023/02/04 11:59:10;;;;;;;33.33;16.00;;;;;;;;;;5019934;28;20025;-67
2023/02/04 12:01:36;;;;;;;32.17;15.70;;;;;;;;;;5020886;28;20168;-67
2023/02/04 12:04:04;;;;;;;32.08;16.88;;;;;;;;;;5080867;28;20083;-67
2023/02/04 12:06:30;;;;;;;30.65;15.30;;;;;;;;;;5080788;28;20457;-67
2023/02/04 12:09:14;;;;;;;35.40;16.52;;;;;;;;;;5080844;28;20079;-67
2023/02/04 12:11:50;;;;;;;34.75;16.88;;;;;;;;;;5080760;28;20042;-67
2023/02/04 12:14:16;;;;;;;34.25;16.02;;;;;;;;;;5080493;28;20038;-67
2023/02/04 12:16:46;;;;;;;29.77;15.35;;;;;;;;;;5080558;28;20496;-68
2023/02/04 12:19:12;;;;;;;32.88;15.52;;;;;;;;;;5080535;28;20031;-67
2023/02/04 12:21:38;;;;;;;30.23;15.15;;;;;;;;;;5083148;27;20039;-67
2023/02/04 12:24:04;;;;;;;29.83;15.95;;;;;;;;;;5084307;27;20050;-67
2023/02/04 12:26:30;;;;;;;33.50;16.52;;;;;;;;;;5084126;27;20471;-67
2023/02/04 12:28:56;;;;;;;30.80;16.23;;;;;;;;;;5084470;27;20118;-67
2023/02/04 12:31:22;;;;;;;27.15;14.18;;;;;;;;;;5084173;27;20035;-67
2023/02/04 12:33:47;;;;;;;23.75;13.68;;;;;;;;;;5084091;27;20038;-67
2023/02/04 12:36:13;;;;;;;29.48;14.38;;;;;;;;;;5084069;27;20039;-68
2023/02/04 12:38:39;;;;;;;27.83;14.55;;;;;;;;;;5084309;27;20027;-67
2023/02/04 12:41:05;;;;;;;28.63;14.10;;;;;;;;;;5083890;27;20467;-68
2023/02/04 12:43:30;;;;;;;27.08;14.23;;;;;;;;;;5083872;27;20031;-67
2023/02/04 12:45:56;;;;;;;27.40;13.98;;;;;;;;;;5084172;27;20092;-67
2023/02/04 12:48:21;;;;;;;25.48;13.23;;;;;;;;;;5083847;27;20031;-68
2023/02/04 12:50:47;;;;;;;25.30;13.15;;;;;;;;;;5100810;27;20462;-68
2023/02/04 12:53:13;;;;;;;29.08;13.15;;;;;;;;;;5083533;27;20042;-68
2023/02/04 12:55:38;;;;;;;28.13;13.10;;;;;;;;;;5083899;27;20043;-68
2023/02/04 12:58:04;;;;;;;26.52;13.23;;;;;;;;;;5083702;27;20028;-68
2023/02/04 13:00:30;;;;;;;25.03;12.77;;;;;;;;;;5100478;27;20030;-68
2023/02/04 13:02:57;;;;;;;28.67;13.40;;;;;;;;;;5083618;27;20333;-68
2023/02/04 13:05:23;;;;;;;25.23;12.97;;;;;;;;;;5083706;27;20074;-68
2023/02/04 13:07:49;;;;;;;26.60;13.53;;;;;;;;;;5083557;27;20427;-68
2023/02/04 13:10:18;;;;;;;25.67;13.43;;;;;;;;;;5083456;27;20031;-68
2023/02/04 13:12:44;;;;;;;28.47;12.97;;;;;;;;;;5100164;27;20033;-68
2023/02/04 13:15:10;;;;;;;28.92;13.68;;;;;;;;;;5114184;28;20463;-68
2023/02/04 13:17:36;;;;;;;27.67;14.10;;;;;;;;;;5079923;28;20035;-68
2023/02/04 13:20:02;;;;;;;30.07;13.30;;;;;;;;;;5080350;28;20038;-68
2023/02/04 13:22:29;;;;;;;30.10;14.33;;;;;;;;;;5097278;28;20035;-67
2023/02/04 13:24:54;;;;;;;31.38;13.90;;;;;;;;;;5080207;28;20036;-68
2023/02/04 13:27:22;;;;;;;27.35;13.88;;;;;;;;;;5080104;28;20092;-68
2023/02/04 13:29:49;;;;;;;33.80;14.10;;;;;;;;;;5079861;28;20031;-68
2023/02/04 13:32:15;;;;;;;33.53;13.13;;;;;;;;;;5078937;28;20034;-68
2023/02/04 13:34:40;;;;;;;26.97;13.10;;;;;;;;;;5079898;28;20129;-68
2023/02/04 13:37:06;;;;;;;29.40;11.95;;;;;;;;;;5079872;28;20070;-68
2023/02/04 13:39:31;;;;;;;26.20;12.60;;;;;;;;;;5079584;28;20130;-68
2023/02/04 13:41:57;;;;;;;29.52;12.32;;;;;;;;;;5079472;28;20034;-68
2023/02/04 13:44:22;;;;;;;30.48;13.07;;;;;;;;;;5079509;28;20032;-68
2023/02/04 13:46:48;;;;;;;29.83;13.40;;;;;;;;;;5096283;28;20042;-68
2023/02/04 13:49:17;;;;;;;27.52;12.80;;;;;;;;;;5079495;28;20032;-68
2023/02/04 13:51:42;;;;;;;27.05;12.07;;;;;;;;;;5079364;28;20027;-68
2023/02/04 13:54:08;;;;;;;27.30;12.57;;;;;;;;;;5079049;28;20096;-69
2023/02/04 13:56:33;;;;;;;31.35;12.95;;;;;;;;;;5079088;28;20032;-68
2023/02/04 13:58:59;;;;;;;28.73;14.48;;;;;;;;;;5079167;28;20482;-68
2023/02/04 14:01:25;;;;;;;24.80;12.80;;;;;;;;;;5095843;28;20054;-68
2023/02/04 14:03:50;;;;;;;26.90;12.68;;;;;;;;;;5079072;28;20080;-68
2023/02/04 14:06:19;;;;;;;24.60;12.35;;;;;;;;;;5079098;28;20129;-68
2023/02/04 14:08:45;;;;;;;28.33;13.63;;;;;;;;;;5113094;28;20035;-68
2023/02/04 14:11:11;;;;;;;31.60;14.10;;;;;;;;;;5079260;28;20069;-68
2023/02/04 14:13:37;;;;;;;34.88;14.27;;;;;;;;;;5078702;28;20067;-68
2023/02/04 14:16:04;;;;;;;25.90;13.17;;;;;;;;;;5061429;28;20067;-68
2023/02/04 14:18:29;;;;;;;31.23;14.30;;;;;;;;;;5093229;28;20118;-68
2023/02/04 14:20:55;;;;;;;31.45;14.35;;;;;;;;;;5058731;28;20131;-68
2023/02/04 14:23:21;;;;;;;27.48;13.73;;;;;;;;;;5058617;28;20458;-68